Time;durP1;ratioP1;P1;durP2;ratioP2;P2;SDS_P1;SDS_P2;PMS_P1;PMS_P2;Temp;Humidity;BMP_temperature;BMP_pressure;BME280_temperature;BME280_humidity;BME280_pressure;Samples;Min_cycle;Max_cycle;Signal;HPM_P1;HPM_P2
2023/12/02 00:00:17;;;;;;;8.57;7.67;;;;;;;2.66;100.00;94128.06;5052748;28;20232;-89
2023/12/02 00:02:43;;;;;;;8.07;7.27;;;;;;;2.57;100.00;94115.53;5060624;28;20623;-89
2023/12/02 00:05:10;;;;;;;8.13;7.33;;;;;;;2.57;100.00;94118.06;5073546;28;20208;-89
2023/12/02 00:07:36;;;;;;;8.20;6.90;;;;;;;2.57;100.00;94120.59;5070248;28;20189;-89
2023/12/02 00:10:05;;;;;;;9.60;7.73;;;;;;;2.58;100.00;94122.19;5053299;28;20212;-88
2023/12/02 00:12:37;;;;;;;8.00;7.20;;;;;;;2.63;100.00;94133.47;5053413;28;20225;-88
2023/12/02 00:15:07;;;;;;;7.90;7.10;;;;;;;2.62;100.00;94124.25;5053509;28;20229;-88
2023/12/02 00:17:33;;;;;;;8.07;7.23;;;;;;;2.65;100.00;94130.75;5051671;28;20197;-88
2023/12/02 00:20:00;;;;;;;9.23;6.93;;;;;;;2.61;100.00;94137.13;5071810;28;20205;-89
2023/12/02 00:22:27;;;;;;;8.23;7.37;;;;;;;2.66;100.00;94129.81;5064437;28;20222;-88
2023/12/02 00:24:53;;;;;;;8.07;7.27;;;;;;;2.55;100.00;94117.44;5053868;28;20229;-89
2023/12/02 00:27:20;;;;;;;8.40;7.50;;;;;;;2.60;100.00;94123.63;5053683;28;20255;-89
2023/12/02 00:29:49;;;;;;;8.93;7.70;;;;;;;2.59;100.00;94124.56;5052773;28;20224;-89
2023/12/02 00:32:17;;;;;;;8.20;7.20;;;;;;;2.54;100.00;94116.66;5052252;28;20664;-90
2023/12/02 00:34:43;;;;;;;9.40;7.57;;;;;;;2.56;100.00;94112.19;5059272;28;20224;-89
2023/12/02 00:37:13;;;;;;;9.03;7.47;;;;;;;2.59;100.00;94109.34;5072662;28;20270;-89
2023/12/02 00:39:39;;;;;;;7.97;7.17;;;;;;;2.59;100.00;94108.53;5072499;28;20635;-88
2023/12/02 00:42:07;;;;;;;7.83;7.07;;;;;;;2.46;100.00;94104.00;5067861;28;20217;-89
2023/12/02 00:44:33;;;;;;;8.57;7.47;;;;;;;2.52;100.00;94125.38;5053010;28;20293;-88
2023/12/02 00:47:03;;;;;;;8.77;7.33;;;;;;;2.51;100.00;94128.88;5052708;28;20205;-88
2023/12/02 00:49:30;;;;;;;9.27;7.83;;;;;;;2.42;100.00;94121.28;5052868;28;20212;-88
2023/12/02 00:51:56;;;;;;;9.07;7.77;;;;;;;2.37;100.00;94131.13;5068519;28;20220;-88
2023/12/02 00:54:23;;;;;;;9.07;7.40;;;;;;;2.42;100.00;94136.53;5062017;28;20197;-88
2023/12/02 00:56:50;;;;;;;9.40;8.10;;;;;;;2.49;100.00;94134.16;5052495;28;20205;-88
2023/12/02 00:59:19;;;;;;;9.10;7.40;;;;;;;2.55;100.00;94130.94;5052196;28;20233;-87
2023/12/02 01:01:46;;;;;;;8.80;7.33;;;;;;;2.57;100.00;94131.56;5051727;28;20240;-88
2023/12/02 01:04:17;;;;;;;9.20;8.17;;;;;;;2.64;100.00;94129.97;5051994;28;20198;-88
2023/12/02 01:06:49;;;;;;;9.63;7.63;;;;;;;2.60;100.00;94120.28;5052465;28;20286;-88
2023/12/02 01:09:19;;;;;;;7.63;6.73;;;;;;;2.51;100.00;94126.34;5065379;28;20201;-89
2023/12/02 01:11:46;;;;;;;8.57;6.70;;;;;;;2.53;100.00;94126.97;5072428;28;20300;-89
2023/12/02 01:14:13;;;;;;;8.57;7.50;;;;;;;2.43;100.00;94140.66;5048449;28;20672;-88
2023/12/02 01:16:39;;;;;;;8.43;7.50;;;;;;;2.39;100.00;94147.00;5050609;28;20280;-89
2023/12/02 01:19:06;;;;;;;9.30;7.80;;;;;;;2.40;100.00;94137.66;5051662;28;20676;-89
2023/12/02 01:21:34;;;;;;;8.83;7.60;;;;;;;2.43;100.00;94153.34;5050043;28;20224;-89
2023/12/02 01:24:01;;;;;;;9.20;7.90;;;;;;;2.50;100.00;94143.34;5063276;28;20210;-89
2023/12/02 01:26:35;;;;;;;9.13;7.73;;;;;;;2.41;100.00;94131.63;5071608;28;20816;-89
2023/12/02 01:29:02;;;;;;;9.07;7.97;;;;;;;2.48;100.00;94130.00;5071398;28;20207;-88
2023/12/02 01:31:29;;;;;;;8.77;7.87;;;;;;;2.42;100.00;94130.66;5071476;28;20312;-88
2023/12/02 01:33:55;;;;;;;8.80;7.70;;;;;;;2.49;100.00;94136.69;5071305;28;20208;-88
2023/12/02 01:36:22;;;;;;;7.97;7.07;;;;;;;2.47;100.00;94128.44;5071286;28;20586;-88
2023/12/02 01:38:50;;;;;;;9.23;7.70;;;;;;;2.46;100.00;94128.59;5065109;28;20239;-88
2023/12/02 01:41:17;;;;;;;9.40;7.63;;;;;;;2.46;100.00;94118.44;5070938;28;20237;-88
2023/12/02 01:43:44;;;;;;;8.60;7.37;;;;;;;2.47;100.00;94118.28;5052304;28;20677;-88
2023/12/02 01:46:13;;;;;;;8.53;7.43;;;;;;;2.41;100.00;94118.91;5050216;28;20201;-88
2023/12/02 01:48:39;;;;;;;9.33;7.80;;;;;;;2.38;100.00;94116.69;5050582;28;20206;-88
2023/12/02 01:51:06;;;;;;;8.93;7.67;;;;;;;2.45;100.00;94115.09;5050423;28;20224;-88
2023/12/02 01:53:33;;;;;;;10.67;8.47;;;;;;;2.37;100.00;94098.13;5050611;28;20200;-88
2023/12/02 01:56:01;;;;;;;9.57;7.97;;;;;;;2.37;100.00;94108.28;5062388;28;20201;-88
2023/12/02 01:58:28;;;;;;;10.37;8.37;;;;;;;2.38;100.00;94117.50;5070150;28;20209;-87
2023/12/02 02:00:54;;;;;;;9.63;7.77;;;;;;;2.43;100.00;94105.09;5071270;28;20231;-89
2023/12/02 02:03:21;;;;;;;10.20;8.03;;;;;;;2.37;100.00;94103.22;5070795;28;20201;-89
2023/12/02 02:05:47;;;;;;;9.63;8.40;;;;;;;2.34;100.00;94095.91;5071015;28;20207;-89
2023/12/02 02:08:14;;;;;;;9.30;8.13;;;;;;;2.26;100.00;94092.63;5062227;28;20243;-89
2023/12/02 02:10:42;;;;;;;9.67;8.53;;;;;;;2.33;100.00;94109.56;5048856;28;20267;-89
2023/12/02 02:13:14;;;;;;;9.53;8.10;;;;;;;2.25;100.00;94103.72;5066418;28;20287;-89
2023/12/02 02:15:49;;;;;;;9.80;7.97;;;;;;;2.27;100.00;94107.69;5070936;28;20215;-89
2023/12/02 02:18:30;;;;;;;9.27;7.43;;;;;;;2.20;100.00;94109.28;5070963;28;20293;-89
2023/12/02 02:21:03;;;;;;;9.70;8.07;;;;;;;2.17;100.00;94112.13;5070302;28;20592;-89
2023/12/02 02:23:32;;;;;;;10.00;8.17;;;;;;;2.14;100.00;94125.16;5052799;28;20802;-90
2023/12/02 02:25:59;;;;;;;9.30;7.77;;;;;;;2.13;100.00;94128.63;5050924;28;20201;-88
2023/12/02 02:28:29;;;;;;;9.33;7.83;;;;;;;2.17;100.00;94127.38;5053665;28;20837;-88
2023/12/02 02:30:56;;;;;;;8.70;7.63;;;;;;;2.18;100.00;94126.41;5071069;28;20580;-88
2023/12/02 02:33:22;;;;;;;10.03;8.13;;;;;;;2.14;100.00;94122.59;5070985;28;20203;-88
2023/12/02 02:35:52;;;;;;;10.63;7.80;;;;;;;2.14;100.00;94119.28;5055727;28;20591;-88
2023/12/02 02:38:21;;;;;;;8.90;7.40;;;;;;;2.12;100.00;94104.19;5049896;28;20213;-88
2023/12/02 02:40:49;;;;;;;9.53;7.87;;;;;;;2.14;100.00;94111.66;5050842;28;20304;-88
2023/12/02 02:43:16;;;;;;;8.97;7.50;;;;;;;2.15;100.00;94134.34;5053012;28;20247;-88
2023/12/02 02:45:43;;;;;;;9.33;7.33;;;;;;;2.28;100.00;94123.72;5070064;28;20209;-88
2023/12/02 02:48:11;;;;;;;8.13;7.00;;;;;;;2.20;100.00;94095.78;5070508;28;20228;-88
2023/12/02 02:50:38;;;;;;;8.63;7.73;;;;;;;2.13;100.00;94108.31;5070702;28;20220;-87
2023/12/02 02:53:04;;;;;;;8.73;7.20;;;;;;;2.11;100.00;94106.94;5070661;28;20203;-88
2023/12/02 02:55:31;;;;;;;9.10;7.73;;;;;;;2.10;100.00;94125.66;5050330;28;20203;-88
2023/12/02 02:57:59;;;;;;;9.60;7.33;;;;;;;2.16;100.00;94133.41;5050332;28;20742;-88
2023/12/02 03:00:26;;;;;;;8.20;7.20;;;;;;;2.20;100.00;94127.03;5050984;28;20260;-88
2023/12/02 03:02:53;;;;;;;8.87;7.60;;;;;;;2.17;100.00;94122.28;5061992;28;20224;-88
2023/12/02 03:05:22;;;;;;;8.37;7.00;;;;;;;2.17;100.00;94116.41;5064235;28;20680;-88
2023/12/02 03:07:51;;;;;;;7.90;7.10;;;;;;;2.21;100.00;94098.16;5042911;28;20478;-88
2023/12/02 03:10:18;;;;;;;8.03;6.73;;;;;;;2.19;100.00;94097.53;5049715;28;20557;-87
2023/12/02 03:12:46;;;;;;;8.47;7.17;;;;;;;2.14;100.00;94098.97;5049804;28;20308;-87
2023/12/02 03:15:14;;;;;;;8.83;7.23;;;;;;;2.17;100.00;94101.19;5049077;28;20216;-89
2023/12/02 03:17:40;;;;;;;8.23;7.20;;;;;;;2.20;100.00;94098.34;5069677;28;20205;-88
2023/12/02 03:20:10;;;;;;;9.23;7.53;;;;;;;2.20;100.00;94108.47;5070330;28;20207;-88
2023/12/02 03:22:37;;;;;;;8.17;6.70;;;;;;;2.14;99.92;94109.91;5059235;28;20218;-88
2023/12/02 03:25:07;;;;;;;8.63;7.23;;;;;;;2.15;100.00;94111.50;5050227;28;20228;-88
2023/12/02 03:27:37;;;;;;;8.33;6.40;;;;;;;2.14;100.00;94112.44;5050463;28;20198;-87
2023/12/02 03:30:05;;;;;;;8.70;7.43;;;;;;;2.01;100.00;94128.19;5050483;28;20605;-88
2023/12/02 03:32:32;;;;;;;9.57;7.63;;;;;;;2.00;100.00;94129.13;5053046;28;20220;-88
2023/12/02 03:34:58;;;;;;;8.37;7.40;;;;;;;2.05;100.00;94126.13;5069998;28;20683;-87
2023/12/02 03:37:25;;;;;;;8.57;7.23;;;;;;;1.99;100.00;94126.75;5070107;28;20376;-87
2023/12/02 03:39:58;;;;;;;8.43;7.23;;;;;;;2.01;100.00;94157.84;5062774;28;20822;-88
2023/12/02 03:42:24;;;;;;;9.30;7.53;;;;;;;1.99;100.00;94162.28;5049409;28;20777;-88
2023/12/02 03:44:51;;;;;;;9.80;7.93;;;;;;;2.03;100.00;94154.19;5049827;28;20244;-88
2023/12/02 03:47:18;;;;;;;8.97;7.50;;;;;;;2.07;100.00;94154.69;5048459;28;20696;-88
2023/12/02 03:49:45;;;;;;;7.63;6.83;;;;;;;2.05;100.00;94156.59;5068172;28;20596;-89
2023/12/02 03:52:12;;;;;;;8.33;7.17;;;;;;;2.07;100.00;94154.69;5069704;28;20221;-88
2023/12/02 03:54:39;;;;;;;8.80;7.40;;;;;;;1.97;100.00;94142.13;5056523;28;20197;-88
2023/12/02 03:57:09;;;;;;;9.53;7.67;;;;;;;1.94;100.00;94134.03;5049072;28;20193;-87
2023/12/02 03:59:36;;;;;;;8.70;7.80;;;;;;;1.90;100.00;94117.56;5049167;28;20223;-88
2023/12/02 04:02:02;;;;;;;11.13;8.30;;;;;;;1.94;100.00;94106.13;5049261;28;20218;-88
2023/12/02 04:04:29;;;;;;;10.37;8.40;;;;;;;1.91;100.00;94112.34;5047403;28;20690;-88
2023/12/02 04:06:57;;;;;;;10.30;8.67;;;;;;;1.91;100.00;94094.59;5069780;28;20259;-88
2023/12/02 04:09:27;;;;;;;10.67;8.53;;;;;;;1.79;100.00;94100.91;5051350;28;20202;-88
2023/12/02 04:11:58;;;;;;;11.17;8.80;;;;;;;1.76;100.00;94085.22;5049568;28;20217;-88
2023/12/02 04:14:25;;;;;;;8.80;7.60;;;;;;;1.71;100.00;94099.19;5049769;28;20624;-88
2023/12/02 04:16:51;;;;;;;10.40;8.40;;;;;;;1.70;100.00;94115.38;5049517;28;20620;-88
2023/12/02 04:19:18;;;;;;;9.53;7.70;;;;;;;1.76;100.00;94128.34;5049467;28;20251;-89
2023/12/02 04:21:47;;;;;;;10.23;8.30;;;;;;;1.69;100.00;94153.56;5055232;28;20248;-88
2023/12/02 04:24:21;;;;;;;10.70;8.53;;;;;;;1.78;100.00;94188.13;5069932;28;20267;-88
2023/12/02 04:26:51;;;;;;;9.37;8.17;;;;;;;1.84;100.00;94200.19;5067266;28;20284;-88
2023/12/02 04:29:18;;;;;;;11.43;8.63;;;;;;;1.87;100.00;94192.28;5049305;28;20202;-89
2023/12/02 04:31:44;;;;;;;12.10;8.90;;;;;;;1.97;100.00;94204.78;5048781;28;20236;-88
2023/12/02 04:34:11;;;;;;;9.37;8.23;;;;;;;1.99;100.00;94178.31;5048730;28;20213;-88
2023/12/02 04:36:38;;;;;;;9.73;7.87;;;;;;;2.01;99.70;94140.88;5055103;28;20197;-88
2023/12/02 04:39:11;;;;;;;9.63;7.93;;;;;;;1.96;99.29;94153.25;5067878;28;20293;-88
2023/12/02 04:41:39;;;;;;;10.50;8.63;;;;;;;1.92;99.20;94153.75;5048803;28;20226;-88
2023/12/02 04:44:08;;;;;;;10.30;8.77;;;;;;;1.87;99.60;94139.00;5050331;28;20232;-88
2023/12/02 04:46:36;;;;;;;12.53;9.40;;;;;;;1.86;99.91;94156.91;5052177;28;20221;-88
2023/12/02 04:49:04;;;;;;;11.07;8.87;;;;;;;1.79;99.78;94158.47;5052983;28;20205;-88
2023/12/02 04:51:35;;;;;;;11.17;9.33;;;;;;;1.74;100.00;94138.66;5052439;28;20252;-89
2023/12/02 04:54:03;;;;;;;10.90;9.23;;;;;;;1.84;100.00;94136.75;5050946;28;20296;-88
2023/12/02 04:56:30;;;;;;;13.53;9.40;;;;;;;1.78;99.90;94112.00;5072294;28;20668;-88
2023/12/02 04:59:07;;;;;;;10.73;8.97;;;;;;;1.79;100.00;94136.44;5052641;28;20293;-88
2023/12/02 05:01:34;;;;;;;11.50;9.90;;;;;;;1.68;100.00;94157.84;5050291;28;20308;-88
2023/12/02 05:04:00;;;;;;;12.50;9.90;;;;;;;1.68;100.00;94168.00;5052687;28;20208;-89
2023/12/02 05:06:31;;;;;;;13.70;10.87;;;;;;;1.71;99.96;94160.06;5052024;28;20255;-88
2023/12/02 05:08:58;;;;;;;11.87;9.73;;;;;;;1.66;99.13;94144.53;5058679;28;20582;-88
2023/12/02 05:11:31;;;;;;;13.47;10.73;;;;;;;1.71;99.51;94167.69;5072237;28;20290;-88
2023/12/02 05:14:02;;;;;;;14.07;10.37;;;;;;;1.65;98.99;94170.84;5071894;28;20205;-89
2023/12/02 05:16:29;;;;;;;14.30;10.60;;;;;;;1.72;99.46;94176.09;5072555;28;20197;-89
2023/12/02 05:19:06;;;;;;;13.80;10.87;;;;;;;1.82;99.06;94183.53;5072470;28;20209;-88
2023/12/02 05:21:36;;;;;;;14.20;10.80;;;;;;;1.78;98.79;94172.09;5070261;28;20307;-88
2023/12/02 05:24:08;;;;;;;12.43;9.80;;;;;;;1.83;98.94;94191.00;5042339;28;20716;-89
2023/12/02 05:26:34;;;;;;;11.90;9.97;;;;;;;1.88;98.44;94190.53;5063324;28;20198;-87
2023/12/02 05:29:02;;;;;;;12.97;10.60;;;;;;;1.88;98.15;94177.84;5031712;28;20293;-88
2023/12/02 05:31:29;;;;;;;11.00;9.60;;;;;;;1.90;97.99;94188.63;5031341;28;20277;-87
2023/12/02 05:33:56;;;;;;;11.90;10.17;;;;;;;1.89;98.77;94205.59;5031339;28;20202;-88
2023/12/02 05:36:23;;;;;;;11.20;9.37;;;;;;;1.91;98.43;94191.00;5031856;28;20198;-89
2023/12/02 05:38:53;;;;;;;12.97;9.80;;;;;;;1.92;98.08;94197.69;5031462;28;20202;-88
2023/12/02 05:41:21;;;;;;;12.10;9.43;;;;;;;1.97;97.80;94197.97;5050237;28;20228;-89
2023/12/02 05:43:48;;;;;;;13.37;10.13;;;;;;;1.97;97.92;94194.63;5056616;28;20235;-90
2023/12/02 05:46:19;;;;;;;11.97;9.47;;;;;;;1.96;97.88;94196.38;5069873;28;20255;-88
2023/12/02 05:48:46;;;;;;;13.47;10.10;;;;;;;1.94;97.17;94179.72;5070593;28;20207;-87
2023/12/02 05:51:13;;;;;;;11.20;9.37;;;;;;;1.95;97.45;94166.09;5070469;28;20248;-87
2023/12/02 05:53:39;;;;;;;12.67;9.87;;;;;;;1.92;98.00;94174.03;5066282;28;20214;-88
2023/12/02 05:56:07;;;;;;;11.77;9.53;;;;;;;1.96;98.25;94200.66;5041417;28;20197;-88
2023/12/02 05:58:34;;;;;;;11.73;9.60;;;;;;;1.88;97.44;94177.84;5066049;28;20254;-88
2023/12/02 06:01:06;;;;;;;11.30;9.63;;;;;;;1.90;97.81;94179.28;5070509;28;20224;-88
2023/12/02 06:03:34;;;;;;;11.43;9.53;;;;;;;1.83;97.43;94162.28;5070749;28;20227;-87
2023/12/02 06:06:00;;;;;;;12.37;9.37;;;;;;;1.87;97.76;94174.50;5070251;28;20193;-88
2023/12/02 06:08:26;;;;;;;12.93;9.37;;;;;;;1.80;98.13;94193.84;5059918;28;20204;-87
2023/12/02 06:10:53;;;;;;;10.20;8.60;;;;;;;1.81;98.27;94189.56;5050384;28;20724;-89
2023/12/02 06:13:25;;;;;;;10.93;8.93;;;;;;;1.85;97.89;94191.63;5054970;28;20739;-88
2023/12/02 06:15:52;;;;;;;11.80;9.67;;;;;;;1.89;97.97;94195.44;5070071;28;20860;-89
2023/12/02 06:18:19;;;;;;;12.30;9.53;;;;;;;1.94;98.33;94205.91;5070101;28;20200;-88
2023/12/02 06:20:46;;;;;;;12.07;9.67;;;;;;;1.92;97.38;94210.38;5056252;28;20259;-89
2023/12/02 06:23:13;;;;;;;12.33;9.30;;;;;;;1.93;97.38;94211.13;5035126;28;20727;-88
2023/12/02 06:25:41;;;;;;;11.77;9.50;;;;;;;1.92;96.67;94202.75;5030517;28;20234;-89
2023/12/02 06:28:08;;;;;;;11.40;9.23;;;;;;;1.89;96.18;94210.66;5030297;28;20579;-88
2023/12/02 06:30:36;;;;;;;11.33;9.10;;;;;;;1.97;96.59;94217.47;5061722;28;20258;-89
2023/12/02 06:33:03;;;;;;;13.63;9.30;;;;;;;1.94;96.26;94223.66;5030974;28;20202;-88
2023/12/02 06:35:29;;;;;;;11.07;9.00;;;;;;;1.98;96.46;94235.09;5030560;28;20206;-88
2023/12/02 06:37:57;;;;;;;12.47;8.97;;;;;;;1.97;96.36;94237.78;5042030;28;20684;-88
2023/12/02 06:40:24;;;;;;;11.93;9.70;;;;;;;1.99;96.02;94226.53;5049973;28;20220;-87
2023/12/02 06:42:51;;;;;;;12.37;9.63;;;;;;;1.92;95.18;94201.94;5050625;28;20224;-88
2023/12/02 06:45:18;;;;;;;12.23;9.80;;;;;;;1.89;95.06;94208.13;5051947;28;20558;-88
2023/12/02 06:47:44;;;;;;;13.40;10.77;;;;;;;1.82;95.27;94230.00;5069409;28;20213;-88
2023/12/02 06:50:12;;;;;;;13.87;10.13;;;;;;;1.90;96.09;94245.25;5065773;28;20211;-89
2023/12/02 06:52:38;;;;;;;15.40;9.53;;;;;;;1.89;95.87;94247.94;5037321;28;20213;-89
2023/12/02 06:55:09;;;;;;;12.47;9.53;;;;;;;1.89;95.59;94251.28;5049731;28;20202;-88
2023/12/02 06:57:35;;;;;;;12.20;10.00;;;;;;;1.96;96.48;94264.09;5049720;28;20665;-87
2023/12/02 07:00:05;;;;;;;14.50;10.57;;;;;;;1.96;96.48;94287.75;5049572;28;20672;-88
2023/12/02 07:02:31;;;;;;;12.73;9.67;;;;;;;1.97;97.63;94308.84;5061451;28;20229;-89
2023/12/02 07:04:58;;;;;;;14.17;10.30;;;;;;;1.97;98.15;94319.00;5069819;28;20208;-88
2023/12/02 07:07:24;;;;;;;12.13;9.83;;;;;;;1.91;98.05;94310.28;5067158;28;20205;-88
2023/12/02 07:09:51;;;;;;;10.93;9.60;;;;;;;2.01;96.82;94305.06;5049387;28;20209;-89
2023/12/02 07:12:18;;;;;;;12.97;10.30;;;;;;;2.08;95.39;94278.09;5048889;28;20224;-88
2023/12/02 07:14:47;;;;;;;13.50;10.53;;;;;;;2.07;94.57;94264.63;5049060;28;20297;-88
2023/12/02 07:17:16;;;;;;;17.90;13.73;;;;;;;2.06;94.28;94259.69;5036239;28;20267;-88
2023/12/02 07:19:43;;;;;;;15.03;11.30;;;;;;;2.07;94.85;94267.16;5069306;28;20216;-88
2023/12/02 07:22:09;;;;;;;12.60;10.00;;;;;;;2.10;94.33;94263.50;5061958;28;20585;-88
2023/12/02 07:24:36;;;;;;;13.97;10.83;;;;;;;2.01;94.32;94274.59;5049133;28;20253;-87
2023/12/02 07:27:03;;;;;;;13.37;10.27;;;;;;;1.95;95.07;94296.31;5049543;28;20284;-88
2023/12/02 07:29:30;;;;;;;12.07;10.03;;;;;;;1.99;94.44;94302.66;5048838;28;20201;-87
2023/12/02 07:31:58;;;;;;;12.33;9.80;;;;;;;1.98;93.80;94283.31;5048638;28;20217;-89
2023/12/02 07:34:25;;;;;;;13.40;10.33;;;;;;;2.01;94.24;94288.06;5056494;28;20205;-87
2023/12/02 07:36:53;;;;;;;13.87;10.90;;;;;;;2.05;94.41;94291.09;5065104;28;20202;-88
2023/12/02 07:39:20;;;;;;;12.90;10.23;;;;;;;2.10;93.92;94286.34;5048555;28;20204;-89
2023/12/02 07:41:46;;;;;;;14.50;10.63;;;;;;;2.06;93.11;94274.94;5048634;28;20229;-87
2023/12/02 07:44:13;;;;;;;14.37;10.00;;;;;;;2.01;93.52;94272.06;5048604;28;20225;-88
2023/12/02 07:46:45;;;;;;;13.53;9.80;;;;;;;2.00;93.61;94286.50;5043684;28;20203;-88
2023/12/02 07:49:12;;;;;;;13.57;10.37;;;;;;;2.08;93.87;94291.59;5040386;28;20247;-88
2023/12/02 07:51:39;;;;;;;15.37;12.13;;;;;;;2.04;93.85;94292.84;5066578;28;20252;-88
2023/12/02 07:54:06;;;;;;;13.73;9.93;;;;;;;2.01;93.64;94284.75;5060986;28;20657;-88
2023/12/02 07:56:33;;;;;;;11.90;9.63;;;;;;;2.02;93.81;94278.72;5049182;28;20211;-88
2023/12/02 07:58:59;;;;;;;10.80;8.50;;;;;;;2.00;93.52;94278.88;5049071;28;20193;-88
2023/12/02 08:01:31;;;;;;;11.67;9.20;;;;;;;2.06;93.63;94280.00;5049257;28;20229;-88
2023/12/02 08:03:59;;;;;;;10.83;8.67;;;;;;;2.05;93.26;94274.13;5048788;28;20769;-88
2023/12/02 08:06:26;;;;;;;10.20;8.87;;;;;;;2.04;93.59;94284.44;5054864;28;20197;-87
2023/12/02 08:08:55;;;;;;;13.13;9.83;;;;;;;2.03;93.67;94285.38;5066348;28;20237;-88
2023/12/02 08:11:26;;;;;;;10.57;8.70;;;;;;;2.10;93.03;94285.56;5068622;28;20244;-87
2023/12/02 08:13:56;;;;;;;11.37;9.30;;;;;;;2.06;92.46;94275.72;5049015;28;20209;-88
2023/12/02 08:16:22;;;;;;;12.63;9.70;;;;;;;2.04;92.50;94281.91;5048648;28;20243;-87
2023/12/02 08:18:52;;;;;;;11.07;8.57;;;;;;;2.05;93.02;94291.09;5049214;28;20197;-87
2023/12/02 08:21:20;;;;;;;10.90;9.10;;;;;;;2.05;92.65;94291.09;5052884;28;20256;-88
2023/12/02 08:23:47;;;;;;;10.53;8.43;;;;;;;2.07;92.44;94284.13;5058456;28;20256;-87
2023/12/02 08:26:15;;;;;;;11.13;9.03;;;;;;;1.98;92.12;94277.44;5052678;28;20211;-87
2023/12/02 08:28:42;;;;;;;12.10;9.37;;;;;;;1.97;91.87;94275.84;5053063;28;20201;-87
2023/12/02 08:31:09;;;;;;;12.60;9.53;;;;;;;1.89;92.57;94298.69;5053368;28;20256;-87
2023/12/02 08:33:37;;;;;;;11.47;9.03;;;;;;;1.94;92.77;94311.69;5052300;28;20203;-88
2023/12/02 08:36:07;;;;;;;10.10;8.47;;;;;;;1.98;91.52;94292.66;5052784;28;20551;-87
2023/12/02 08:38:35;;;;;;;10.37;8.40;;;;;;;1.99;92.29;94307.75;5057419;28;20227;-88
2023/12/02 08:41:01;;;;;;;11.37;9.57;;;;;;;2.02;91.62;94293.94;5073397;28;20236;-87
2023/12/02 08:43:28;;;;;;;12.77;9.30;;;;;;;2.07;91.50;94297.63;5063356;28;20218;-88
2023/12/02 08:45:59;;;;;;;11.10;8.83;;;;;;;1.88;91.09;94279.34;5044285;28;20202;-87
2023/12/02 08:48:25;;;;;;;10.63;8.90;;;;;;;1.87;92.29;94303.91;5052335;28;20225;-87
2023/12/02 08:50:52;;;;;;;10.07;8.53;;;;;;;1.93;92.64;94305.03;5052431;28;20875;-86
2023/12/02 08:53:18;;;;;;;11.97;9.50;;;;;;;1.97;92.04;94301.22;5052003;28;20210;-88
2023/12/02 08:55:46;;;;;;;12.10;9.07;;;;;;;1.95;90.97;94288.69;5066348;28;20201;-87
2023/12/02 08:58:13;;;;;;;11.03;9.27;;;;;;;1.97;91.14;94284.25;5033114;28;20213;-88
2023/12/02 09:00:42;;;;;;;11.20;9.30;;;;;;;2.00;91.22;94299.19;5032377;28;20236;-88
2023/12/02 09:03:08;;;;;;;10.53;8.70;;;;;;;2.01;90.37;94283.00;5032032;28;20317;-88
2023/12/02 09:05:35;;;;;;;12.20;9.67;;;;;;;1.99;90.32;94284.09;5032779;28;20198;-88
2023/12/02 09:08:02;;;;;;;11.40;9.07;;;;;;;2.03;90.81;94296.34;5036932;28;20193;-89
2023/12/02 09:10:30;;;;;;;11.27;9.27;;;;;;;1.99;90.21;94292.50;5039139;28;20211;-88
2023/12/02 09:13:01;;;;;;;11.57;9.23;;;;;;;2.00;89.87;94301.72;5072110;28;20673;-88
2023/12/02 09:15:46;;;;;;;11.10;8.77;;;;;;;2.02;89.08;94304.09;5071667;28;20201;-88
2023/12/02 09:18:14;;;;;;;13.33;9.93;;;;;;;1.94;89.51;94307.41;5072312;28;20223;-88
2023/12/02 09:20:55;;;;;;;14.50;10.87;;;;;;;1.82;90.09;94326.41;5071987;28;20231;-89
2023/12/02 09:23:30;;;;;;;13.97;10.23;;;;;;;1.86;90.41;94335.31;5055349;28;20279;-88
2023/12/02 09:26:22;;;;;;;15.07;9.90;;;;;;;1.88;89.34;94309.78;5052367;28;20228;-88
2023/12/02 09:28:57;;;;;;;11.23;9.33;;;;;;;1.84;88.86;94299.16;5069271;28;20201;-88
2023/12/02 09:31:27;;;;;;;11.60;9.10;;;;;;;1.86;89.20;94299.78;5071825;28;20262;-90
2023/12/02 09:33:59;;;;;;;11.70;8.57;;;;;;;1.88;89.12;94292.03;5071927;28;20197;-89
2023/12/02 09:36:44;;;;;;;11.43;9.03;;;;;;;1.88;88.57;94292.03;5032213;28;20228;-89
2023/12/02 09:39:49;;;;;;;11.10;8.90;;;;;;;1.87;88.75;94298.03;5037804;28;20204;-88
2023/12/02 09:42:30;;;;;;;;;;;;;;;;;;;;;
2023/12/02 09:45:10;;;;;;;12.53;9.60;;;;;;;1.84;88.98;94288.19;5065033;28;20223;-89
2023/12/02 09:47:56;;;;;;;11.40;9.07;;;;;;;1.78;88.52;94276.91;5071375;28;20193;-89
2023/12/02 09:50:38;;;;;;;11.13;8.70;;;;;;;1.77;88.88;94288.00;5071937;28;20231;-89
2023/12/02 09:53:18;;;;;;;11.70;9.10;;;;;;;1.82;88.53;94295.16;5071758;28;20231;-89
2023/12/02 09:55:55;;;;;;;13.70;10.20;;;;;;;1.77;88.11;94294.84;5032475;28;20224;-89
2023/12/02 09:58:25;;;;;;;12.67;9.77;;;;;;;1.64;88.46;94302.91;5032798;28;20201;-89
2023/12/02 10:04:20;;;;;;;11.43;8.83;;;;;;;1.56;89.88;94358.66;5045745;28;20221;-88
2023/12/02 10:06:52;;;;;;;14.03;10.07;;;;;;;1.63;90.16;94382.47;5051738;28;20197;-89
2023/12/02 10:09:45;;;;;;;11.47;9.30;;;;;;;1.63;89.15;94357.91;5033654;28;20739;-88
2023/12/02 10:12:35;;;;;;;12.20;9.67;;;;;;;1.50;90.03;94402.38;5032104;28;20226;-89
2023/12/02 10:15:05;;;;;;;12.33;9.53;;;;;;;1.58;93.79;94499.59;5037076;28;20205;-88
2023/12/02 10:17:50;;;;;;;23.70;16.80;;;;;;;1.70;91.39;94472.25;5070922;28;20200;-89
2023/12/02 10:20:26;;;;;;;21.07;15.87;;;;;;;1.84;93.63;94526.72;5071197;28;20200;-88
2023/12/02 10:22:59;;;;;;;12.83;10.07;;;;;;;1.89;90.24;94474.59;5058250;28;20224;-89
2023/12/02 10:25:34;;;;;;;12.20;9.80;;;;;;;1.91;87.96;94421.94;5050724;28;20222;-89
2023/12/02 10:28:23;;;;;;;9.70;8.17;;;;;;;1.88;86.34;94379.09;5051006;28;20246;-87
2023/12/02 10:30:52;;;;;;;11.13;8.80;;;;;;;1.76;86.86;94379.50;5049911;28;20308;-88
2023/12/02 10:33:28;;;;;;;12.10;9.13;;;;;;;1.65;87.54;94383.13;5063609;28;20297;-88
2023/12/02 10:36:00;;;;;;;12.77;8.93;;;;;;;1.66;87.25;94372.03;5047837;28;20193;-88
2023/12/02 10:38:38;;;;;;;10.83;9.07;;;;;;;1.70;87.40;94363.16;5042919;28;20189;-88
2023/12/02 10:41:13;;;;;;;13.37;9.40;;;;;;;1.66;87.42;94350.00;5049856;28;20260;-88
2023/12/02 10:43:44;;;;;;;11.63;9.40;;;;;;;1.63;87.26;94357.09;5051099;28;20221;-88
2023/12/02 10:46:12;;;;;;;11.50;9.20;;;;;;;1.59;88.02;94373.56;5050093;28;20570;-88
2023/12/02 10:48:40;;;;;;;11.57;8.83;;;;;;;1.67;88.79;94394.72;5065158;28;20228;-87
2023/12/02 10:51:09;;;;;;;11.53;9.07;;;;;;;1.75;88.47;94388.84;5041329;28;20227;-87
2023/12/02 10:53:37;;;;;;;10.77;9.43;;;;;;;1.91;88.26;94378.00;5034167;28;20206;-88
2023/12/02 10:56:10;;;;;;;11.50;9.00;;;;;;;1.98;88.83;94384.81;5050235;28;20239;-87
2023/12/02 10:58:42;;;;;;;11.70;8.77;;;;;;;1.84;87.57;94360.03;5049619;28;20228;-88
2023/12/02 11:01:14;;;;;;;11.77;9.30;;;;;;;1.91;87.63;94371.19;5050255;28;20723;-87
2023/12/02 11:03:51;;;;;;;26.30;20.50;;;;;;;1.94;87.14;94364.97;5048058;28;20233;-88
2023/12/02 11:06:29;;;;;;;15.37;12.30;;;;;;;2.05;86.26;94350.28;5052795;28;20796;-88
2023/12/02 11:09:04;;;;;;;12.43;9.67;;;;;;;2.10;85.40;94337.13;5044453;28;20197;-89
2023/12/02 11:11:53;;;;;;;10.67;9.20;;;;;;;2.10;84.75;94323.63;5049719;28;20311;-89
2023/12/02 11:14:24;;;;;;;12.50;9.20;;;;;;;2.15;84.58;94318.88;5049511;28;20288;-88
2023/12/02 11:17:09;;;;;;;11.43;8.97;;;;;;;2.11;84.43;94315.88;5050515;28;20213;-88
2023/12/02 11:20:05;;;;;;;14.40;10.63;;;;;;;2.05;85.22;94339.31;5047525;28;20289;-89
2023/12/02 11:22:55;;;;;;;13.20;10.07;;;;;;;2.02;85.97;94352.31;5070115;28;20225;-88
2023/12/02 11:25:34;;;;;;;12.87;9.90;;;;;;;1.87;86.09;94367.34;5070340;28;20212;-88
2023/12/02 11:28:06;;;;;;;12.47;9.17;;;;;;;1.86;87.04;94382.72;5070538;28;20231;-88
2023/12/02 11:30:55;;;;;;;10.87;9.67;;;;;;;1.98;86.88;94394.97;5070821;28;20243;-88
2023/12/02 11:33:40;;;;;;;12.63;9.93;;;;;;;1.96;87.99;94427.31;5068756;28;20235;-88
2023/12/02 11:36:13;;;;;;;11.53;9.03;;;;;;;1.99;87.37;94441.47;5058815;28;20197;-87
2023/12/02 11:38:58;;;;;;;11.53;8.53;;;;;;;2.03;87.31;94446.09;5070758;28;20682;-89
2023/12/02 11:41:32;;;;;;;11.13;8.70;;;;;;;2.12;85.53;94415.66;5070264;28;20242;-88
2023/12/02 11:44:18;;;;;;;10.90;8.60;;;;;;;2.15;84.35;94392.50;5069644;28;20227;-88
2023/12/02 11:47:04;;;;;;;10.37;8.20;;;;;;;2.14;83.73;94378.22;5069315;28;20288;-89
2023/12/02 11:49:39;;;;;;;9.80;8.03;;;;;;;2.15;83.33;94377.25;5070330;28;20283;-89